createdAt,value
2022-12-11T00:01:12.124Z,99475.31
2022-12-11T00:03:40.911Z,99472.84
2022-12-11T00:06:11.566Z,99479.72
2022-12-11T00:08:42.294Z,99482.28
2022-12-11T00:11:13.850Z,99481.47
2022-12-11T00:13:41.908Z,99485.66
2022-12-11T00:16:10.602Z,99489.06
2022-12-11T00:18:38.653Z,99486.47
2022-12-11T00:21:08.505Z,99482.16
2022-12-11T00:23:37.354Z,99483.84
2022-12-11T00:26:12.911Z,99479.56
2022-12-11T00:28:41.479Z,99478.00
2022-12-11T00:31:14.353Z,99489.00
2022-12-11T00:33:43.994Z,99481.25
2022-12-11T00:36:20.390Z,99473.50
2022-12-11T00:38:49.448Z,99479.56
2022-12-11T00:41:18.061Z,99475.16
2022-12-11T00:43:46.203Z,99478.66
2022-12-11T00:46:14.562Z,99481.25
2022-12-11T00:48:42.383Z,99473.44
2022-12-11T00:51:10.977Z,99473.34
2022-12-11T00:53:40.150Z,99473.44
2022-12-11T00:56:16.788Z,99478.59
2022-12-11T00:58:46.021Z,99473.50
2022-12-11T01:01:25.496Z,99482.09
2022-12-11T01:03:54.299Z,99483.84
2022-12-11T01:06:28.309Z,99470.91
2022-12-11T01:09:15.663Z,99470.91
2022-12-11T01:11:46.225Z,99464.91
2022-12-11T01:14:14.666Z,99469.22
2022-12-11T01:16:42.547Z,99471.91
2022-12-11T01:19:10.377Z,99453.19
2022-12-11T01:21:41.486Z,99465.75
2022-12-11T01:24:09.353Z,99476.19
2022-12-11T01:26:37.203Z,99482.16
2022-12-11T01:29:05.257Z,99479.66
2022-12-11T01:31:33.983Z,99487.31
2022-12-11T01:34:01.839Z,99471.94
2022-12-11T01:36:30.036Z,99476.84
2022-12-11T01:39:00.843Z,99488.84
2022-12-11T01:41:28.774Z,99491.59
2022-12-11T01:44:08.854Z,99496.63
2022-12-11T01:46:37.262Z,99492.44
2022-12-11T01:49:09.529Z,99487.19
2022-12-11T01:51:59.490Z,99495.84
2022-12-11T01:54:30.573Z,99486.38
2022-12-11T01:57:09.477Z,99473.50
2022-12-11T01:59:41.522Z,99473.50
2022-12-11T02:02:21.941Z,99474.19
2022-12-11T02:04:50.400Z,99462.72
2022-12-11T02:07:18.302Z,99480.41
2022-12-11T02:09:48.066Z,99479.44
2022-12-11T02:12:59.761Z,99489.78
2022-12-11T02:15:50.026Z,99471.94
2022-12-11T02:18:37.083Z,99483.13
2022-12-11T02:21:21.273Z,99492.63
2022-12-11T02:24:17.692Z,99500.41
2022-12-11T02:26:51.817Z,99492.69
2022-12-11T02:29:35.344Z,99496.88
2022-12-11T02:32:12.064Z,99498.59
2022-12-11T02:35:09.917Z,99500.50
2022-12-11T02:37:42.251Z,99505.56
2022-12-11T02:40:13.443Z,99508.16
2022-12-11T02:42:44.235Z,99505.56
2022-12-11T02:45:14.285Z,99513.19
2022-12-11T02:47:47.727Z,99513.19
2022-12-11T02:50:19.926Z,99514.88
2022-12-11T02:52:51.114Z,99520.03
2022-12-11T02:55:20.224Z,99520.94
2022-12-11T02:57:51.437Z,99511.00
2022-12-11T03:00:20.190Z,99529.63
2022-12-11T03:02:48.285Z,99526.09
2022-12-11T03:05:16.703Z,99533.03
2022-12-11T03:07:48.144Z,99533.81
2022-12-11T03:10:19.486Z,99534.63
2022-12-11T03:12:53.805Z,99536.41
2022-12-11T03:15:30.507Z,99541.63
2022-12-11T03:18:20.459Z,99548.50
2022-12-11T03:21:09.649Z,99548.75
2022-12-11T03:24:11.683Z,99555.28
2022-12-11T03:26:55.968Z,99561.63
2022-12-11T03:29:30.715Z,99563.34
2022-12-11T03:32:13.728Z,99565.00
2022-12-11T03:34:59.977Z,99571.97
2022-12-11T03:37:31.785Z,99560.78
2022-12-11T03:40:05.557Z,99567.63
2022-12-11T03:42:34.811Z,99563.28
2022-12-11T03:45:05.358Z,99571.12
2022-12-11T03:47:33.918Z,99559.09
2022-12-11T03:50:04.527Z,99565.94
2022-12-11T03:52:33.833Z,99570.34
2022-12-11T03:55:04.721Z,99573.69
2022-12-11T03:57:36.707Z,99567.75
2022-12-11T04:00:17.127Z,99574.56
2022-12-11T04:02:45.769Z,99579.78
2022-12-11T04:05:14.014Z,99578.81
2022-12-11T04:07:42.052Z,99578.81
2022-12-11T04:10:10.480Z,99582.31
2022-12-11T04:12:38.387Z,99570.44
2022-12-11T04:15:06.669Z,99573.13
2022-12-11T04:17:55.907Z,99583.28
2022-12-11T04:20:42.399Z,99581.59
2022-12-11T04:23:34.354Z,99592.78
2022-12-11T04:26:07.818Z,99592.78
2022-12-11T04:28:36.646Z,99592.00
2022-12-11T04:31:04.919Z,99605.84
2022-12-11T04:33:33.014Z,99612.75
2022-12-11T04:36:01.680Z,99617.81
2022-12-11T04:38:29.377Z,99618.69
2022-12-11T04:41:09.233Z,99622.97
2022-12-11T04:43:37.834Z,99610.16
2022-12-11T04:46:06.896Z,99616.09
2022-12-11T04:48:35.770Z,99627.31
2022-12-11T04:51:04.777Z,99617.81
2022-12-11T04:53:32.923Z,99622.06
2022-12-11T04:56:12.334Z,99625.69
2022-12-11T04:58:42.106Z,99632.53
2022-12-11T05:01:22.719Z,99632.50
2022-12-11T05:03:51.077Z,99632.53
2022-12-11T05:06:18.911Z,99642.84
2022-12-11T05:08:46.724Z,99641.09
2022-12-11T05:11:16.631Z,99635.00
2022-12-11T05:13:45.670Z,99640.16
2022-12-11T05:16:16.459Z,99639.31
2022-12-11T05:18:44.691Z,99641.03
2022-12-11T05:21:15.863Z,99641.84
2022-12-11T05:23:44.146Z,99635.91
2022-12-11T05:26:19.217Z,99640.16
2022-12-11T05:28:51.345Z,99641.84
2022-12-11T05:31:22.362Z,99651.44
2022-12-11T05:33:51.305Z,99648.00
2022-12-11T05:36:26.474Z,99647.91
2022-12-11T05:38:55.690Z,99648.84
2022-12-11T05:41:25.830Z,99646.09
2022-12-11T05:43:54.300Z,99653.88
2022-12-11T05:46:31.232Z,99649.56
2022-12-11T05:49:01.980Z,99659.03
2022-12-11T05:51:30.907Z,99658.22
2022-12-11T05:53:59.867Z,99661.50
2022-12-11T05:56:35.041Z,99667.47
2022-12-11T05:59:05.168Z,99669.22
2022-12-11T06:01:42.764Z,99677.81
2022-12-11T06:04:12.543Z,99682.97
2022-12-11T06:06:41.066Z,99691.47
2022-12-11T06:09:08.837Z,99703.47
2022-12-11T06:11:37.251Z,99704.25
2022-12-11T06:14:05.534Z,99700.88
2022-12-11T06:16:33.562Z,99708.59
2022-12-11T06:19:02.173Z,99716.22
2022-12-11T06:21:32.607Z,99720.50
2022-12-11T06:24:05.928Z,99723.97
2022-12-11T06:26:34.061Z,99722.09
2022-12-11T06:29:01.834Z,99735.00
2022-12-11T06:31:29.719Z,99747.91
2022-12-11T06:33:57.909Z,99747.78
2022-12-11T06:36:26.054Z,99748.31
2022-12-11T06:38:56.812Z,99752.69
2022-12-11T06:41:25.468Z,99749.94
2022-12-11T06:43:53.292Z,99757.50
2022-12-11T06:46:21.915Z,99753.22
2022-12-11T06:48:51.623Z,99764.59
2022-12-11T06:51:22.062Z,99766.00
2022-12-11T06:53:56.367Z,99773.28
2022-12-11T06:56:25.113Z,99778.22
2022-12-11T06:58:53.580Z,99769.69
2022-12-11T07:01:27.771Z,99769.53
2022-12-11T07:03:58.469Z,99773.69
2022-12-11T07:06:28.798Z,99771.09
2022-12-11T07:08:57.557Z,99770.84
2022-12-11T07:11:25.321Z,99769.06
2022-12-11T07:13:53.080Z,99774.34
2022-12-11T07:16:21.837Z,99783.50
2022-12-11T07:18:51.320Z,99778.94
2022-12-11T07:21:20.828Z,99781.19
2022-12-11T07:23:49.996Z,99774.19
2022-12-11T07:26:20.996Z,99776.41
2022-12-11T07:28:49.621Z,99789.22
2022-12-11T07:31:23.312Z,99795.13
2022-12-11T07:33:58.184Z,99788.06
2022-12-11T07:36:26.903Z,99794.03
2022-12-11T07:38:55.568Z,99796.63
2022-12-11T07:41:23.803Z,99801.78
2022-12-11T07:43:53.961Z,99801.38
2022-12-11T07:46:28.616Z,99802.41
2022-12-11T07:48:56.480Z,99807.59
2022-12-11T07:51:30.771Z,99813.75
2022-12-11T07:54:05.202Z,99807.66
2022-12-11T07:56:35.924Z,99810.97
2022-12-11T07:59:05.989Z,99821.31
2022-12-11T08:01:36.800Z,99823.97
2022-12-11T08:04:10.408Z,99810.91
2022-12-11T08:06:40.521Z,99819.25
2022-12-11T08:09:14.684Z,99821.62
2022-12-11T08:11:49.560Z,99819.81
2022-12-11T08:14:18.296Z,99825.72
2022-12-11T08:16:46.216Z,99821.38
2022-12-11T08:19:14.643Z,99830.63
2022-12-11T08:21:43.032Z,99825.47
2022-12-11T08:24:11.000Z,99825.19
2022-12-11T08:26:39.841Z,99820.06
2022-12-11T08:29:09.635Z,99824.22
2022-12-11T08:31:39.676Z,99819.75
2022-12-11T08:34:07.603Z,99828.28
2022-12-11T08:36:35.688Z,99828.41
2022-12-11T08:39:03.584Z,99831.00
2022-12-11T08:41:31.938Z,99831.66
2022-12-11T08:44:01.994Z,99822.00
2022-12-11T08:46:32.776Z,99814.28
2022-12-11T08:49:01.082Z,99820.19
2022-12-11T08:51:30.190Z,99826.28
2022-12-11T08:54:02.393Z,99821.84
2022-12-11T08:56:30.905Z,99814.91
2022-12-11T08:59:02.277Z,99833.91
2022-12-11T09:01:30.685Z,99840.97
2022-12-11T09:03:58.964Z,99848.81
2022-12-11T09:06:28.549Z,99853.28
2022-12-11T09:08:59.248Z,99861.19
2022-12-11T09:11:30.684Z,99858.88
2022-12-11T09:14:05.172Z,99867.69
2022-12-11T09:16:40.694Z,99870.34
2022-12-11T09:19:14.488Z,99878.25
2022-12-11T09:21:43.546Z,99886.22
2022-12-11T09:24:13.745Z,99893.13
2022-12-11T09:26:42.455Z,99894.06
2022-12-11T09:29:12.505Z,99904.53
2022-12-11T09:31:41.067Z,99907.13
2022-12-11T09:34:12.041Z,99910.81
2022-12-11T09:36:41.658Z,99911.91
2022-12-11T09:39:12.576Z,99904.19
2022-12-11T09:42:03.803Z,99915.53
2022-12-11T09:44:48.974Z,99912.94
2022-12-11T09:47:35.120Z,99907.94
2022-12-11T09:50:12.061Z,99903.56
2022-12-11T09:53:14.455Z,99901.47
2022-12-11T09:56:07.696Z,99893.59
2022-12-11T09:58:52.327Z,99893.06
2022-12-11T10:01:41.331Z,99885.31
2022-12-11T10:04:28.082Z,99885.16
2022-12-11T10:07:17.146Z,99887.34
2022-12-11T10:10:06.399Z,99895.91
2022-12-11T10:13:02.769Z,99895.00
2022-12-11T10:15:30.946Z,99900.09
2022-12-11T10:18:04.887Z,99906.25
2022-12-11T10:20:39.556Z,99908.84
2022-12-11T10:23:10.090Z,99908.19
2022-12-11T10:26:06.367Z,99912.41
2022-12-11T10:28:35.495Z,99906.25
2022-12-11T10:31:37.814Z,99902.53
2022-12-11T10:34:15.280Z,99910.16
2022-12-11T10:36:44.065Z,99903.38
2022-12-11T10:39:15.839Z,99918.25
2022-12-11T10:41:47.028Z,99919.63
2022-12-11T10:44:26.407Z,99909.28
2022-12-11T10:47:15.973Z,99914.59
2022-12-11T10:49:52.625Z,99906.59
2022-12-11T10:52:24.334Z,99907.13
2022-12-11T10:55:00.007Z,99905.97
2022-12-11T10:57:35.109Z,99906.88
2022-12-11T11:00:23.055Z,99909.28
2022-12-11T11:02:51.146Z,99897.31
2022-12-11T11:05:36.516Z,99898.19
2022-12-11T11:08:16.126Z,99898.50
2022-12-11T11:11:37.094Z,99900.13
2022-12-11T11:14:08.291Z,99899.34
2022-12-11T11:16:39.185Z,99893.16
2022-12-11T11:19:08.017Z,99878.13
2022-12-11T11:21:36.260Z,99895.06
2022-12-11T11:24:04.381Z,99900.00
2022-12-11T11:27:04.730Z,99886.34
2022-12-11T11:29:34.920Z,99886.41
2022-12-11T11:32:22.969Z,99893.16
2022-12-11T11:34:50.879Z,99894.66
2022-12-11T11:37:33.338Z,99897.19
2022-12-11T11:40:12.258Z,99892.31
2022-12-11T11:42:56.877Z,99915.41
2022-12-11T11:45:36.519Z,99906.62
2022-12-11T11:48:20.621Z,99891.94
2022-12-11T11:50:50.816Z,99891.28
2022-12-11T11:53:26.479Z,99883.78
2022-12-11T11:56:24.174Z,99886.13
2022-12-11T11:59:14.684Z,99888.72
2022-12-11T12:01:43.795Z,99899.06
2022-12-11T12:04:12.755Z,99913.03
2022-12-11T12:07:01.978Z,99915.66
2022-12-11T12:09:42.308Z,99917.28
2022-12-11T12:12:33.812Z,99920.22
2022-12-11T12:15:11.231Z,99922.69
2022-12-11T12:18:14.287Z,99921.66
2022-12-11T12:20:45.264Z,99914.28
2022-12-11T12:23:37.397Z,99918.78
2022-12-11T12:26:24.120Z,99929.91
2022-12-11T12:29:10.142Z,99919.88
2022-12-11T12:32:05.580Z,99931.69
2022-12-11T12:34:51.719Z,99922.59
2022-12-11T12:37:53.419Z,99913.81
2022-12-11T12:40:41.127Z,99903.63
2022-12-11T12:43:53.685Z,99901.25
2022-12-11T12:47:02.146Z,99895.16
2022-12-11T12:49:43.298Z,99890.97
2022-12-11T12:52:26.702Z,99887.59
2022-12-11T12:55:16.545Z,99897.59
2022-12-11T12:57:51.542Z,99898.44
2022-12-11T13:00:41.558Z,99906.94
2022-12-11T13:03:21.116Z,99906.19
2022-12-11T13:06:05.201Z,99908.09
2022-12-11T13:08:52.066Z,99903.00
2022-12-11T13:11:21.943Z,99892.03
2022-12-11T13:14:04.784Z,99909.37
2022-12-11T13:16:39.699Z,99919.63
2022-12-11T13:19:42.418Z,99921.91
2022-12-11T13:22:13.643Z,99916.97
2022-12-11T13:24:53.190Z,99920.34
2022-12-11T13:27:27.904Z,99915.16
2022-12-11T13:30:30.379Z,99912.03
2022-12-11T13:33:06.549Z,99901.81
2022-12-11T13:35:35.680Z,99904.44
2022-12-11T13:38:23.041Z,99900.97
2022-12-11T13:40:54.937Z,99903.00
2022-12-11T13:43:27.460Z,99891.22
2022-12-11T13:45:59.878Z,99887.41
2022-12-11T13:48:37.383Z,99877.75
2022-12-11T13:51:06.512Z,99880.97
2022-12-11T13:53:34.703Z,99875.09
2022-12-11T13:56:08.136Z,99872.34
2022-12-11T13:58:39.510Z,99871.13
2022-12-11T14:01:07.981Z,99882.41
2022-12-11T14:03:36.708Z,99877.13
2022-12-11T14:06:04.943Z,99868.59
2022-12-11T14:08:37.547Z,99856.34
2022-12-11T14:11:05.756Z,99856.16
2022-12-11T14:13:40.609Z,99858.47
2022-12-11T14:16:08.915Z,99860.91
2022-12-11T14:18:37.592Z,99865.47
2022-12-11T14:21:06.955Z,99873.22
2022-12-11T14:23:37.828Z,99867.16
2022-12-11T14:26:19.243Z,99870.53
2022-12-11T14:28:47.596Z,99874.75
2022-12-11T14:31:23.086Z,99871.63
2022-12-11T14:34:02.105Z,99874.81
2022-12-11T14:36:32.175Z,99877.56
2022-12-11T14:39:12.418Z,99874.84
2022-12-11T14:41:45.861Z,99865.38
2022-12-11T14:44:17.769Z,99859.47
2022-12-11T14:47:07.333Z,99871.47
2022-12-11T14:49:41.200Z,99866.50
2022-12-11T14:52:31.654Z,99856.09
2022-12-11T14:55:25.377Z,99864.63
2022-12-11T14:57:56.030Z,99863.63
2022-12-11T15:00:25.740Z,99852.47
2022-12-11T15:03:20.737Z,99840.69
2022-12-11T15:05:56.262Z,99843.03
2022-12-11T15:08:26.963Z,99797.72
2022-12-11T15:11:04.926Z,99787.50
2022-12-11T15:13:35.128Z,99791.72
2022-12-11T15:16:06.451Z,99782.28
2022-12-11T15:18:36.482Z,99788.59
2022-12-11T15:21:07.604Z,99791.59
2022-12-11T15:23:55.577Z,99795.84
2022-12-11T15:26:39.374Z,99799.12
2022-12-11T15:29:26.542Z,99793.84
2022-12-11T15:32:09.879Z,99768.38
2022-12-11T15:34:46.557Z,99777.50
2022-12-11T15:37:27.105Z,99781.06
2022-12-11T15:39:56.772Z,99787.97
2022-12-11T15:42:43.279Z,99793.75
2022-12-11T15:45:19.476Z,99792.91
2022-12-11T15:47:49.595Z,99789.47
2022-12-11T15:50:21.158Z,99772.47
2022-12-11T15:52:50.538Z,99770.69
2022-12-11T15:55:19.000Z,99783.50
2022-12-11T15:58:02.294Z,99772.25
2022-12-11T16:00:30.857Z,99773.94
2022-12-11T16:02:59.230Z,99760.94
2022-12-11T16:05:27.433Z,99765.28
2022-12-11T16:07:59.887Z,99752.28
2022-12-11T16:10:28.373Z,99761.72
2022-12-11T16:12:59.879Z,99737.91
2022-12-11T16:15:28.838Z,99748.00
2022-12-11T16:18:17.879Z,99740.19
2022-12-11T16:20:47.161Z,99726.47
2022-12-11T16:23:17.473Z,99719.53
2022-12-11T16:28:32.226Z,99740.44
2022-12-11T16:30:59.984Z,99736.81
2022-12-11T16:33:27.868Z,99734.22
2022-12-11T16:35:56.071Z,99734.44
2022-12-11T16:38:23.793Z,99735.25
2022-12-11T16:41:00.244Z,99737.78
2022-12-11T16:43:28.345Z,99735.25
2022-12-11T16:45:56.331Z,99736.03
2022-12-11T16:48:24.378Z,99729.81
2022-12-11T16:50:58.959Z,99728.00
2022-12-11T16:53:26.825Z,99717.16
2022-12-11T16:55:55.346Z,99717.66
2022-12-11T16:58:23.106Z,99705.56
2022-12-11T17:00:51.036Z,99695.25
2022-12-11T17:03:22.021Z,99680.87
2022-12-11T17:05:49.718Z,99667.97
2022-12-11T17:08:17.511Z,99656.72
2022-12-11T17:10:45.733Z,99657.63
2022-12-11T17:13:13.757Z,99655.09
2022-12-11T17:15:45.740Z,99659.28
2022-12-11T17:18:14.438Z,99649.97
2022-12-11T17:20:43.302Z,99652.50
2022-12-11T17:23:12.220Z,99641.28
2022-12-11T17:25:45.628Z,99637.91
2022-12-11T17:28:13.949Z,99646.50
2022-12-11T17:30:44.946Z,99645.47
2022-12-11T17:33:12.884Z,99642.22
2022-12-11T17:35:40.621Z,99637.03
2022-12-11T17:38:08.761Z,99629.28
2022-12-11T17:40:41.496Z,99635.22
2022-12-11T17:43:11.428Z,99629.16
2022-12-11T17:45:52.599Z,99642.87
2022-12-11T17:48:24.350Z,99629.94
2022-12-11T17:50:53.495Z,99633.16
2022-12-11T17:53:23.053Z,99632.47
2022-12-11T17:55:52.159Z,99625.53
2022-12-11T17:58:22.864Z,99639.31
2022-12-11T18:00:53.451Z,99624.62
2022-12-11T18:03:22.894Z,99622.81
2022-12-11T18:05:53.494Z,99614.41
2022-12-11T18:08:26.407Z,99610.00
2022-12-11T18:10:54.839Z,99600.56
2022-12-11T18:13:23.803Z,99584.25
2022-12-11T18:16:07.285Z,99573.72
2022-12-11T18:18:35.691Z,99565.25
2022-12-11T18:21:03.766Z,99557.50
2022-12-11T18:26:18.651Z,99567.69
2022-12-11T18:28:47.321Z,99559.81
2022-12-11T18:31:16.007Z,99545.31
2022-12-11T18:36:31.270Z,99546.22
2022-12-11T18:38:59.457Z,99544.56
2022-12-11T18:41:27.219Z,99550.50
2022-12-11T18:50:30.729Z,99559.94
2022-12-11T18:52:59.006Z,99547.00
2022-12-11T18:55:27.099Z,99545.94
2022-12-11T18:57:55.023Z,99538.34
2022-12-11T19:00:26.165Z,99510.97
2022-12-11T19:02:53.866Z,99531.34
2022-12-11T19:05:21.657Z,99527.00
2022-12-11T19:07:50.116Z,99534.69
2022-12-11T19:10:18.139Z,99529.53
2022-12-11T19:12:46.220Z,99518.47
2022-12-11T19:15:17.371Z,99524.25
2022-12-11T19:17:47.589Z,99527.53
2022-12-11T19:20:47.566Z,99532.88
2022-12-11T19:23:04.322Z,99536.34
2022-12-11T19:25:33.110Z,99531.94
2022-12-11T19:28:01.389Z,99519.00
2022-12-11T19:30:29.276Z,99516.38
2022-12-11T19:32:58.645Z,99512.84
2022-12-11T19:35:26.510Z,99513.72
2022-12-11T19:37:55.783Z,99518.88
2022-12-11T19:40:27.168Z,99524.84
2022-12-11T19:42:54.983Z,99521.31
2022-12-11T19:45:23.147Z,99531.72
2022-12-11T19:47:50.966Z,99535.94
2022-12-11T19:50:21.802Z,99542.78
2022-12-11T19:52:50.023Z,99551.59
2022-12-11T19:55:19.923Z,99537.13
2022-12-11T19:57:48.023Z,99557.16
2022-12-11T20:00:16.604Z,99554.69
2022-12-11T20:02:44.858Z,99559.75
2022-12-11T20:05:13.456Z,99556.28
2022-12-11T20:07:41.530Z,99555.62
2022-12-11T20:10:10.312Z,99537.69
2022-12-11T20:12:38.185Z,99551.22
2022-12-11T20:15:06.941Z,99543.56
2022-12-11T20:17:37.025Z,99542.50
2022-12-11T20:20:05.206Z,99515.38
2022-12-11T20:22:32.881Z,99533.09
2022-12-11T20:25:00.956Z,99530.22
2022-12-11T20:27:28.883Z,99526.97
2022-12-11T20:29:57.785Z,99533.00
2022-12-11T20:32:26.089Z,99528.69
2022-12-11T20:34:58.031Z,99526.91
2022-12-11T20:37:27.202Z,99510.75
2022-12-11T20:39:55.262Z,99514.03
2022-12-11T20:42:24.294Z,99518.31
2022-12-11T20:44:52.490Z,99519.28
2022-12-11T20:47:23.467Z,99516.62
2022-12-11T20:49:52.543Z,99504.63
2022-12-11T20:52:21.537Z,99508.81
2022-12-11T20:54:49.565Z,99503.69
2022-12-11T20:57:17.406Z,99502.09
2022-12-11T20:59:45.794Z,99496.91
2022-12-11T21:02:13.745Z,99491.66
2022-12-11T21:04:41.971Z,99482.22
2022-12-11T21:07:11.489Z,99473.75
2022-12-11T21:09:39.622Z,99472.03
2022-12-11T21:12:08.067Z,99480.56
2022-12-11T21:14:36.477Z,99480.56
2022-12-11T21:17:05.018Z,99472.03
2022-12-11T21:19:36.431Z,99464.31
2022-12-11T21:22:07.815Z,99455.56
2022-12-11T21:24:35.702Z,99459.84
2022-12-11T21:27:03.607Z,99449.00
2022-12-11T21:29:31.939Z,99458.03
2022-12-11T21:31:59.945Z,99458.97
2022-12-11T21:34:28.076Z,99451.16
2022-12-11T21:36:57.419Z,99442.63
2022-12-11T21:39:28.544Z,99437.50
2022-12-11T21:41:58.414Z,99429.69
2022-12-11T21:47:15.992Z,99428.84
2022-12-11T21:49:43.751Z,99417.50
2022-12-11T21:52:12.167Z,99416.59
2022-12-11T21:54:41.204Z,99406.53
2022-12-11T21:57:09.047Z,99399.53
2022-12-11T21:59:36.788Z,99403.78
2022-12-11T22:02:04.967Z,99401.06
2022-12-11T22:04:33.304Z,99396.03
2022-12-11T22:07:01.123Z,99399.44
2022-12-11T22:09:28.987Z,99402.03
2022-12-11T22:11:58.767Z,99384.91
2022-12-11T22:14:27.111Z,99388.25
2022-12-11T22:16:55.074Z,99382.19
2022-12-11T22:19:25.610Z,99372.78
2022-12-11T22:21:57.182Z,99370.31
2022-12-11T22:24:25.326Z,99370.91
2022-12-11T22:26:54.719Z,99367.84
2022-12-11T22:29:22.580Z,99383.09
2022-12-11T22:31:50.810Z,99380.28
2022-12-11T22:34:18.590Z,99370.00
2022-12-11T22:36:46.283Z,99366.50
2022-12-11T22:39:14.316Z,99356.97
2022-12-11T22:41:45.152Z,99359.66
2022-12-11T22:44:15.529Z,99350.97
2022-12-11T22:46:49.705Z,99357.84
2022-12-11T22:49:19.490Z,99342.31
2022-12-11T22:51:48.089Z,99340.53
2022-12-11T22:54:16.105Z,99331.94
2022-12-11T22:56:43.856Z,99324.19
2022-12-11T22:59:11.980Z,99331.78
2022-12-11T23:01:40.795Z,99331.84
2022-12-11T23:04:08.611Z,99324.19
2022-12-11T23:06:36.894Z,99324.09
2022-12-11T23:09:04.863Z,99312.12
2022-12-11T23:11:36.584Z,99313.66
2022-12-11T23:14:07.949Z,99306.87
2022-12-11T23:16:35.691Z,99303.38
2022-12-11T23:19:04.123Z,99307.87
2022-12-11T23:21:33.114Z,99295.53
2022-12-11T23:24:01.686Z,99288.84
2022-12-11T23:26:30.147Z,99294.84
2022-12-11T23:28:59.648Z,99303.47
2022-12-11T23:31:28.334Z,99292.94
2022-12-11T23:33:56.530Z,99297.44
2022-12-11T23:36:26.186Z,99293.13
2022-12-11T23:38:55.171Z,99290.59
2022-12-11T23:41:24.200Z,99286.13
2022-12-11T23:43:52.629Z,99287.94
2022-12-11T23:46:23.730Z,99281.69
2022-12-11T23:48:53.514Z,99276.66
2022-12-11T23:51:22.969Z,99273.25
2022-12-11T23:53:51.619Z,99268.97
2022-12-11T23:56:23.360Z,99265.53
2022-12-11T23:58:52.683Z,99267.22
